Minter City, Mississippi
Current Conditions -  °F | °C
As of 9:53 AM on Saturday 22 Nov 2014 (Local Time) from KGWO Reporting Station
Scattered Clouds Scattered Clouds  
Wind Chill: 65°   Ceiling: Unl
Heat Index: 65°   Visibility: 10mi
Dew Point: 42°   Wind: 16mph
Humidity: 43%   Direction: 150°SSE
Pressure: 30.23"   Gusts: NA
Location:  33.75°N, 90.29°W
Report Text: KGWO 221553Z AUTO 15014KT 10SM SCT120 18/06 A3023 RMK AO2 SLP235 T01830056 TSNO
Loading
Personal Weather Stations






























Interactive Weather Map New forecast layout! Learn more

10-Day Weather Forecast

Advertisements
Track Severe Weather on mobile